sensor_id;sensor_type;location;lat;lon;timestamp;P1;durP1;ratioP1;P2;durP2;ratioP2
11596;SDS011;5854;48.072;16.286;2023-12-20T00:00:34;9.85;;;7.65;;
11596;SDS011;5854;48.072;16.286;2023-12-20T00:03:03;16.73;;;8.57;;
11596;SDS011;5854;48.072;16.286;2023-12-20T00:05:30;13.13;;;9.55;;
11596;SDS011;5854;48.072;16.286;2023-12-20T00:07:58;10.32;;;7.43;;
11596;SDS011;5854;48.072;16.286;2023-12-20T00:10:25;11.48;;;7.53;;
11596;SDS011;5854;48.072;16.286;2023-12-20T00:12:53;11.30;;;6.97;;
11596;SDS011;5854;48.072;16.286;2023-12-20T00:15:21;8.88;;;6.35;;
11596;SDS011;5854;48.072;16.286;2023-12-20T00:17:48;4.28;;;3.88;;
11596;SDS011;5854;48.072;16.286;2023-12-20T00:20:16;4.75;;;3.72;;
11596;SDS011;5854;48.072;16.286;2023-12-20T00:22:43;2.15;;;2.00;;
11596;SDS011;5854;48.072;16.286;2023-12-20T00:25:10;1.85;;;1.75;;
11596;SDS011;5854;48.072;16.286;2023-12-20T00:27:37;2.00;;;1.90;;
11596;SDS011;5854;48.072;16.286;2023-12-20T00:30:05;1.98;;;1.88;;
11596;SDS011;5854;48.072;16.286;2023-12-20T00:32:35;2.72;;;2.53;;
11596;SDS011;5854;48.072;16.286;2023-12-20T00:35:03;3.05;;;2.20;;
11596;SDS011;5854;48.072;16.286;2023-12-20T00:37:31;3.90;;;3.58;;
11596;SDS011;5854;48.072;16.286;2023-12-20T00:39:58;4.72;;;4.20;;
11596;SDS011;5854;48.072;16.286;2023-12-20T00:42:25;4.00;;;3.20;;
11596;SDS011;5854;48.072;16.286;2023-12-20T00:44:53;3.50;;;3.30;;
11596;SDS011;5854;48.072;16.286;2023-12-20T00:47:20;2.47;;;2.35;;
11596;SDS011;5854;48.072;16.286;2023-12-20T00:49:48;5.32;;;3.08;;
11596;SDS011;5854;48.072;16.286;2023-12-20T00:52:16;2.28;;;2.17;;
11596;SDS011;5854;48.072;16.286;2023-12-20T00:54:43;3.13;;;2.92;;
11596;SDS011;5854;48.072;16.286;2023-12-20T00:57:11;2.25;;;2.15;;
11596;SDS011;5854;48.072;16.286;2023-12-20T00:59:38;3.42;;;3.28;;
11596;SDS011;5854;48.072;16.286;2023-12-20T01:02:05;19.95;;;15.20;;
11596;SDS011;5854;48.072;16.286;2023-12-20T01:04:34;26.75;;;18.48;;
11596;SDS011;5854;48.072;16.286;2023-12-20T01:07:02;33.85;;;22.02;;
11596;SDS011;5854;48.072;16.286;2023-12-20T01:09:30;34.08;;;21.17;;
11596;SDS011;5854;48.072;16.286;2023-12-20T01:11:57;35.83;;;20.10;;
11596;SDS011;5854;48.072;16.286;2023-12-20T01:14:24;18.08;;;13.85;;
11596;SDS011;5854;48.072;16.286;2023-12-20T01:16:52;27.52;;;18.10;;
11596;SDS011;5854;48.072;16.286;2023-12-20T01:19:19;32.20;;;21.33;;
11596;SDS011;5854;48.072;16.286;2023-12-20T01:21:46;30.42;;;19.05;;
11596;SDS011;5854;48.072;16.286;2023-12-20T01:24:15;27.90;;;17.58;;
11596;SDS011;5854;48.072;16.286;2023-12-20T01:26:42;30.50;;;20.00;;
11596;SDS011;5854;48.072;16.286;2023-12-20T01:29:09;30.25;;;21.92;;
11596;SDS011;5854;48.072;16.286;2023-12-20T01:31:37;25.77;;;19.17;;
11596;SDS011;5854;48.072;16.286;2023-12-20T01:34:04;42.85;;;20.42;;
11596;SDS011;5854;48.072;16.286;2023-12-20T01:36:31;30.73;;;19.48;;
11596;SDS011;5854;48.072;16.286;2023-12-20T01:38:59;24.42;;;18.58;;
11596;SDS011;5854;48.072;16.286;2023-12-20T01:41:27;24.52;;;16.40;;
11596;SDS011;5854;48.072;16.286;2023-12-20T01:43:54;31.27;;;19.33;;
11596;SDS011;5854;48.072;16.286;2023-12-20T01:46:21;29.98;;;19.65;;
11596;SDS011;5854;48.072;16.286;2023-12-20T01:48:49;30.70;;;18.73;;
11596;SDS011;5854;48.072;16.286;2023-12-20T01:51:16;26.20;;;15.60;;
11596;SDS011;5854;48.072;16.286;2023-12-20T01:53:43;27.77;;;17.45;;
11596;SDS011;5854;48.072;16.286;2023-12-20T01:56:11;30.67;;;17.83;;
11596;SDS011;5854;48.072;16.286;2023-12-20T01:58:42;29.85;;;18.00;;
11596;SDS011;5854;48.072;16.286;2023-12-20T02:01:11;24.58;;;15.93;;
11596;SDS011;5854;48.072;16.286;2023-12-20T02:03:39;28.60;;;17.23;;
11596;SDS011;5854;48.072;16.286;2023-12-20T02:06:07;21.13;;;15.70;;
11596;SDS011;5854;48.072;16.286;2023-12-20T02:08:35;33.33;;;16.95;;
11596;SDS011;5854;48.072;16.286;2023-12-20T02:11:02;22.33;;;15.50;;
11596;SDS011;5854;48.072;16.286;2023-12-20T02:13:30;27.23;;;16.50;;
11596;SDS011;5854;48.072;16.286;2023-12-20T02:15:59;24.42;;;17.02;;
11596;SDS011;5854;48.072;16.286;2023-12-20T02:18:27;32.15;;;18.02;;
11596;SDS011;5854;48.072;16.286;2023-12-20T02:20:55;20.42;;;15.52;;
11596;SDS011;5854;48.072;16.286;2023-12-20T02:23:23;21.02;;;16.65;;
11596;SDS011;5854;48.072;16.286;2023-12-20T02:25:50;20.55;;;15.25;;
11596;SDS011;5854;48.072;16.286;2023-12-20T02:28:18;18.83;;;13.45;;
11596;SDS011;5854;48.072;16.286;2023-12-20T02:30:46;21.40;;;14.48;;
11596;SDS011;5854;48.072;16.286;2023-12-20T02:33:14;22.88;;;14.45;;
11596;SDS011;5854;48.072;16.286;2023-12-20T02:35:43;18.42;;;14.43;;
11596;SDS011;5854;48.072;16.286;2023-12-20T02:38:10;10.95;;;9.95;;
11596;SDS011;5854;48.072;16.286;2023-12-20T02:40:39;14.30;;;12.68;;
11596;SDS011;5854;48.072;16.286;2023-12-20T02:43:06;13.63;;;12.02;;
11596;SDS011;5854;48.072;16.286;2023-12-20T02:45:33;18.85;;;13.70;;
11596;SDS011;5854;48.072;16.286;2023-12-20T02:48:01;18.38;;;14.68;;
11596;SDS011;5854;48.072;16.286;2023-12-20T02:50:29;20.38;;;15.05;;
11596;SDS011;5854;48.072;16.286;2023-12-20T02:52:56;27.05;;;14.63;;
11596;SDS011;5854;48.072;16.286;2023-12-20T02:55:23;23.35;;;14.23;;
11596;SDS011;5854;48.072;16.286;2023-12-20T02:57:52;19.38;;;12.82;;
11596;SDS011;5854;48.072;16.286;2023-12-20T03:00:19;15.48;;;13.45;;
11596;SDS011;5854;48.072;16.286;2023-12-20T03:02:46;16.42;;;14.05;;
11596;SDS011;5854;48.072;16.286;2023-12-20T03:05:13;21.48;;;15.27;;
11596;SDS011;5854;48.072;16.286;2023-12-20T03:07:41;16.90;;;13.45;;
11596;SDS011;5854;48.072;16.286;2023-12-20T03:10:08;15.68;;;13.48;;
11596;SDS011;5854;48.072;16.286;2023-12-20T03:12:35;22.55;;;16.00;;
11596;SDS011;5854;48.072;16.286;2023-12-20T03:15:04;16.60;;;12.00;;
11596;SDS011;5854;48.072;16.286;2023-12-20T03:17:32;21.20;;;14.18;;
11596;SDS011;5854;48.072;16.286;2023-12-20T03:20:00;20.23;;;14.95;;
11596;SDS011;5854;48.072;16.286;2023-12-20T03:22:27;19.90;;;13.20;;
11596;SDS011;5854;48.072;16.286;2023-12-20T03:24:54;20.10;;;14.10;;
11596;SDS011;5854;48.072;16.286;2023-12-20T03:27:22;25.13;;;15.13;;
11596;SDS011;5854;48.072;16.286;2023-12-20T03:29:49;16.30;;;12.85;;
11596;SDS011;5854;48.072;16.286;2023-12-20T03:32:17;16.17;;;12.60;;
11596;SDS011;5854;48.072;16.286;2023-12-20T03:34:45;21.75;;;14.60;;
11596;SDS011;5854;48.072;16.286;2023-12-20T03:37:11;18.83;;;13.75;;
11596;SDS011;5854;48.072;16.286;2023-12-20T03:39:38;16.70;;;12.05;;
11596;SDS011;5854;48.072;16.286;2023-12-20T03:42:06;32.78;;;14.18;;
11596;SDS011;5854;48.072;16.286;2023-12-20T03:44:33;21.27;;;12.80;;
11596;SDS011;5854;48.072;16.286;2023-12-20T03:47:00;10.30;;;9.27;;
11596;SDS011;5854;48.072;16.286;2023-12-20T03:49:29;13.88;;;12.48;;
11596;SDS011;5854;48.072;16.286;2023-12-20T03:51:56;17.98;;;14.25;;
11596;SDS011;5854;48.072;16.286;2023-12-20T03:54:24;13.57;;;9.77;;
11596;SDS011;5854;48.072;16.286;2023-12-20T03:56:51;7.22;;;6.53;;
11596;SDS011;5854;48.072;16.286;2023-12-20T03:59:18;4.97;;;4.65;;
11596;SDS011;5854;48.072;16.286;2023-12-20T04:01:46;4.57;;;4.28;;
11596;SDS011;5854;48.072;16.286;2023-12-20T04:04:13;3.67;;;3.47;;
11596;SDS011;5854;48.072;16.286;2023-12-20T04:06:42;2.17;;;2.08;;
11596;SDS011;5854;48.072;16.286;2023-12-20T04:09:09;1.80;;;1.80;;
11596;SDS011;5854;48.072;16.286;2023-12-20T04:11:37;3.28;;;2.55;;
11596;SDS011;5854;48.072;16.286;2023-12-20T04:14:04;1.95;;;1.88;;
11596;SDS011;5854;48.072;16.286;2023-12-20T04:16:32;2.97;;;2.33;;
11596;SDS011;5854;48.072;16.286;2023-12-20T04:18:59;1.65;;;1.63;;
11596;SDS011;5854;48.072;16.286;2023-12-20T04:21:27;1.75;;;1.60;;
11596;SDS011;5854;48.072;16.286;2023-12-20T04:23:56;3.05;;;2.78;;
11596;SDS011;5854;48.072;16.286;2023-12-20T04:26:23;2.80;;;2.20;;
11596;SDS011;5854;48.072;16.286;2023-12-20T04:28:50;5.75;;;5.20;;
11596;SDS011;5854;48.072;16.286;2023-12-20T04:31:17;13.38;;;9.98;;
11596;SDS011;5854;48.072;16.286;2023-12-20T04:33:45;10.38;;;9.35;;
11596;SDS011;5854;48.072;16.286;2023-12-20T04:36:12;11.60;;;9.10;;
11596;SDS011;5854;48.072;16.286;2023-12-20T04:38:39;7.75;;;5.85;;
11596;SDS011;5854;48.072;16.286;2023-12-20T04:41:08;5.90;;;5.40;;
11596;SDS011;5854;48.072;16.286;2023-12-20T04:43:35;8.70;;;7.97;;
11596;SDS011;5854;48.072;16.286;2023-12-20T04:46:02;9.52;;;7.60;;
11596;SDS011;5854;48.072;16.286;2023-12-20T04:48:30;10.35;;;8.40;;
11596;SDS011;5854;48.072;16.286;2023-12-20T04:50:57;7.97;;;7.28;;
11596;SDS011;5854;48.072;16.286;2023-12-20T04:53:24;9.43;;;8.52;;
11596;SDS011;5854;48.072;16.286;2023-12-20T04:55:52;7.85;;;7.07;;
11596;SDS011;5854;48.072;16.286;2023-12-20T04:58:21;9.63;;;8.63;;
11596;SDS011;5854;48.072;16.286;2023-12-20T05:00:49;10.13;;;8.10;;
11596;SDS011;5854;48.072;16.286;2023-12-20T05:03:16;9.90;;;8.95;;
11596;SDS011;5854;48.072;16.286;2023-12-20T05:05:43;10.57;;;9.50;;
11596;SDS011;5854;48.072;16.286;2023-12-20T05:08:10;13.60;;;10.18;;
11596;SDS011;5854;48.072;16.286;2023-12-20T05:10:37;12.82;;;8.25;;
11596;SDS011;5854;48.072;16.286;2023-12-20T05:13:05;7.30;;;6.70;;
11596;SDS011;5854;48.072;16.286;2023-12-20T05:15:34;5.60;;;5.25;;
11596;SDS011;5854;48.072;16.286;2023-12-20T05:18:01;2.13;;;2.03;;
11596;SDS011;5854;48.072;16.286;2023-12-20T05:20:29;1.92;;;1.83;;
11596;SDS011;5854;48.072;16.286;2023-12-20T05:22:56;1.45;;;1.45;;
11596;SDS011;5854;48.072;16.286;2023-12-20T05:25:24;1.20;;;1.20;;
11596;SDS011;5854;48.072;16.286;2023-12-20T05:27:51;4.05;;;3.17;;
11596;SDS011;5854;48.072;16.286;2023-12-20T05:30:18;2.00;;;1.90;;
11596;SDS011;5854;48.072;16.286;2023-12-20T05:32:47;2.90;;;2.70;;
11596;SDS011;5854;48.072;16.286;2023-12-20T05:35:14;5.72;;;2.47;;
11596;SDS011;5854;48.072;16.286;2023-12-20T05:37:42;9.60;;;2.75;;
11596;SDS011;5854;48.072;16.286;2023-12-20T05:40:10;2.08;;;1.98;;
11596;SDS011;5854;48.072;16.286;2023-12-20T05:42:39;4.78;;;2.40;;
11596;SDS011;5854;48.072;16.286;2023-12-20T05:45:07;2.97;;;2.72;;
11596;SDS011;5854;48.072;16.286;2023-12-20T05:47:35;1.75;;;1.42;;
11596;SDS011;5854;48.072;16.286;2023-12-20T05:50:05;1.50;;;1.42;;
11596;SDS011;5854;48.072;16.286;2023-12-20T05:52:34;3.15;;;2.92;;
11596;SDS011;5854;48.072;16.286;2023-12-20T05:55:01;4.15;;;3.08;;
11596;SDS011;5854;48.072;16.286;2023-12-20T05:57:29;2.42;;;2.22;;
11596;SDS011;5854;48.072;16.286;2023-12-20T05:59:56;1.80;;;1.70;;
11596;SDS011;5854;48.072;16.286;2023-12-20T06:02:23;2.15;;;2.03;;
11596;SDS011;5854;48.072;16.286;2023-12-20T06:04:50;1.92;;;1.83;;
11596;SDS011;5854;48.072;16.286;2023-12-20T06:07:19;2.10;;;1.90;;
11596;SDS011;5854;48.072;16.286;2023-12-20T06:09:46;2.17;;;2.08;;
11596;SDS011;5854;48.072;16.286;2023-12-20T06:12:13;3.22;;;2.22;;
11596;SDS011;5854;48.072;16.286;2023-12-20T06:14:41;2.08;;;1.98;;
11596;SDS011;5854;48.072;16.286;2023-12-20T06:17:08;2.00;;;1.63;;
11596;SDS011;5854;48.072;16.286;2023-12-20T06:19:35;2.17;;;2.08;;
11596;SDS011;5854;48.072;16.286;2023-12-20T06:22:02;1.92;;;1.83;;
11596;SDS011;5854;48.072;16.286;2023-12-20T06:24:31;2.50;;;2.10;;
11596;SDS011;5854;48.072;16.286;2023-12-20T06:26:59;3.08;;;2.13;;
11596;SDS011;5854;48.072;16.286;2023-12-20T06:29:26;3.05;;;1.55;;
11596;SDS011;5854;48.072;16.286;2023-12-20T06:31:54;2.38;;;2.22;;
11596;SDS011;5854;48.072;16.286;2023-12-20T06:34:21;2.55;;;2.35;;
11596;SDS011;5854;48.072;16.286;2023-12-20T06:36:49;2.35;;;1.90;;
11596;SDS011;5854;48.072;16.286;2023-12-20T06:39:16;1.50;;;1.40;;
11596;SDS011;5854;48.072;16.286;2023-12-20T06:41:44;4.13;;;1.65;;
11596;SDS011;5854;48.072;16.286;2023-12-20T06:44:14;1.77;;;1.67;;
11596;SDS011;5854;48.072;16.286;2023-12-20T06:46:42;2.13;;;1.85;;
11596;SDS011;5854;48.072;16.286;2023-12-20T06:49:11;1.73;;;1.60;;
11596;SDS011;5854;48.072;16.286;2023-12-20T06:51:38;1.23;;;1.23;;
11596;SDS011;5854;48.072;16.286;2023-12-20T06:54:05;2.47;;;2.28;;
11596;SDS011;5854;48.072;16.286;2023-12-20T06:56:32;4.22;;;2.05;;
11596;SDS011;5854;48.072;16.286;2023-12-20T06:59:01;4.07;;;2.42;;
11596;SDS011;5854;48.072;16.286;2023-12-20T07:01:28;1.92;;;1.73;;
11596;SDS011;5854;48.072;16.286;2023-12-20T07:03:55;2.15;;;1.88;;
11596;SDS011;5854;48.072;16.286;2023-12-20T07:06:23;4.80;;;2.15;;
11596;SDS011;5854;48.072;16.286;2023-12-20T07:08:51;2.38;;;2.00;;
11596;SDS011;5854;48.072;16.286;2023-12-20T07:11:19;1.70;;;1.60;;
11596;SDS011;5854;48.072;16.286;2023-12-20T07:13:46;2.08;;;1.98;;
11596;SDS011;5854;48.072;16.286;2023-12-20T07:16:15;1.63;;;1.52;;
11596;SDS011;5854;48.072;16.286;2023-12-20T07:18:42;1.98;;;1.88;;
11596;SDS011;5854;48.072;16.286;2023-12-20T07:21:10;2.10;;;2.00;;
11596;SDS011;5854;48.072;16.286;2023-12-20T07:23:37;2.20;;;2.10;;
11596;SDS011;5854;48.072;16.286;2023-12-20T07:26:04;2.10;;;1.60;;
11596;SDS011;5854;48.072;16.286;2023-12-20T07:28:31;1.83;;;1.73;;
11596;SDS011;5854;48.072;16.286;2023-12-20T07:30:58;1.88;;;1.77;;
11596;SDS011;5854;48.072;16.286;2023-12-20T07:33:27;2.28;;;2.08;;
11596;SDS011;5854;48.072;16.286;2023-12-20T07:35:55;3.35;;;1.65;;
11596;SDS011;5854;48.072;16.286;2023-12-20T07:38:22;3.65;;;3.28;;
11596;SDS011;5854;48.072;16.286;2023-12-20T07:40:50;2.03;;;1.92;;
11596;SDS011;5854;48.072;16.286;2023-12-20T07:43:17;2.08;;;1.98;;
11596;SDS011;5854;48.072;16.286;2023-12-20T07:45:44;1.45;;;1.42;;
11596;SDS011;5854;48.072;16.286;2023-12-20T07:48:12;1.20;;;1.20;;
11596;SDS011;5854;48.072;16.286;2023-12-20T07:50:40;2.33;;;1.73;;
11596;SDS011;5854;48.072;16.286;2023-12-20T07:53:08;2.17;;;1.90;;
11596;SDS011;5854;48.072;16.286;2023-12-20T07:55:35;1.40;;;1.30;;
11596;SDS011;5854;48.072;16.286;2023-12-20T07:58:02;2.05;;;1.50;;
11596;SDS011;5854;48.072;16.286;2023-12-20T08:00:30;2.15;;;2.00;;
11596;SDS011;5854;48.072;16.286;2023-12-20T08:02:57;3.55;;;2.92;;
11596;SDS011;5854;48.072;16.286;2023-12-20T08:05:24;1.48;;;1.38;;
11596;SDS011;5854;48.072;16.286;2023-12-20T08:07:53;1.67;;;1.55;;
11596;SDS011;5854;48.072;16.286;2023-12-20T08:10:20;1.95;;;1.85;;
11596;SDS011;5854;48.072;16.286;2023-12-20T08:12:47;1.85;;;1.75;;
11596;SDS011;5854;48.072;16.286;2023-12-20T08:15:15;2.08;;;1.98;;
11596;SDS011;5854;48.072;16.286;2023-12-20T08:17:42;3.42;;;2.28;;
11596;SDS011;5854;48.072;16.286;2023-12-20T08:20:10;2.50;;;2.25;;
11596;SDS011;5854;48.072;16.286;2023-12-20T08:22:37;2.35;;;1.98;;
11596;SDS011;5854;48.072;16.286;2023-12-20T08:25:06;3.22;;;2.08;;
11596;SDS011;5854;48.072;16.286;2023-12-20T08:27:36;1.77;;;1.67;;
11596;SDS011;5854;48.072;16.286;2023-12-20T08:30:06;11.50;;;1.85;;
11596;SDS011;5854;48.072;16.286;2023-12-20T08:32:36;2.70;;;2.50;;
11596;SDS011;5854;48.072;16.286;2023-12-20T08:35:03;2.47;;;2.28;;
11596;SDS011;5854;48.072;16.286;2023-12-20T08:37:31;1.65;;;1.55;;
11596;SDS011;5854;48.072;16.286;2023-12-20T08:39:58;1.67;;;1.58;;
11596;SDS011;5854;48.072;16.286;2023-12-20T08:42:27;1.95;;;1.85;;
11596;SDS011;5854;48.072;16.286;2023-12-20T08:44:56;1.85;;;1.75;;
11596;SDS011;5854;48.072;16.286;2023-12-20T08:47:24;13.27;;;4.03;;
11596;SDS011;5854;48.072;16.286;2023-12-20T08:49:51;1.58;;;1.48;;
11596;SDS011;5854;48.072;16.286;2023-12-20T08:52:21;4.55;;;2.47;;
11596;SDS011;5854;48.072;16.286;2023-12-20T08:54:49;1.40;;;1.30;;
11596;SDS011;5854;48.072;16.286;2023-12-20T08:57:17;1.80;;;1.70;;
11596;SDS011;5854;48.072;16.286;2023-12-20T08:59:49;1.20;;;1.20;;
11596;SDS011;5854;48.072;16.286;2023-12-20T09:02:16;2.10;;;1.60;;
11596;SDS011;5854;48.072;16.286;2023-12-20T09:04:44;1.15;;;1.15;;
11596;SDS011;5854;48.072;16.286;2023-12-20T09:07:20;2.47;;;2.10;;
11596;SDS011;5854;48.072;16.286;2023-12-20T09:09:49;1.85;;;1.55;;
11596;SDS011;5854;48.072;16.286;2023-12-20T09:12:17;1.58;;;1.30;;
11596;SDS011;5854;48.072;16.286;2023-12-20T09:14:45;1.52;;;1.52;;
11596;SDS011;5854;48.072;16.286;2023-12-20T09:17:13;1.60;;;1.50;;
11596;SDS011;5854;48.072;16.286;2023-12-20T09:19:41;1.33;;;1.27;;
11596;SDS011;5854;48.072;16.286;2023-12-20T09:22:09;1.88;;;1.75;;
11596;SDS011;5854;48.072;16.286;2023-12-20T09:24:36;2.53;;;1.30;;
11596;SDS011;5854;48.072;16.286;2023-12-20T09:27:05;1.50;;;1.48;;
11596;SDS011;5854;48.072;16.286;2023-12-20T09:29:32;1.40;;;1.40;;
11596;SDS011;5854;48.072;16.286;2023-12-20T09:31:59;1.90;;;1.50;;
11596;SDS011;5854;48.072;16.286;2023-12-20T09:34:28;2.33;;;2.22;;
11596;SDS011;5854;48.072;16.286;2023-12-20T09:36:55;2.28;;;1.85;;
11596;SDS011;5854;48.072;16.286;2023-12-20T09:39:22;1.40;;;1.30;;
11596;SDS011;5854;48.072;16.286;2023-12-20T09:41:51;2.35;;;1.35;;
11596;SDS011;5854;48.072;16.286;2023-12-20T09:44:27;2.13;;;1.88;;
11596;SDS011;5854;48.072;16.286;2023-12-20T09:46:55;1.40;;;1.40;;
11596;SDS011;5854;48.072;16.286;2023-12-20T09:49:23;1.67;;;1.58;;
11596;SDS011;5854;48.072;16.286;2023-12-20T09:51:53;1.55;;;1.45;;
11596;SDS011;5854;48.072;16.286;2023-12-20T09:54:21;1.65;;;1.55;;
11596;SDS011;5854;48.072;16.286;2023-12-20T09:56:49;1.15;;;1.15;;
11596;SDS011;5854;48.072;16.286;2023-12-20T09:59:17;1.63;;;1.52;;
11596;SDS011;5854;48.072;16.286;2023-12-20T10:01:44;1.52;;;1.42;;
11596;SDS011;5854;48.072;16.286;2023-12-20T10:04:12;1.50;;;1.40;;
11596;SDS011;5854;48.072;16.286;2023-12-20T10:06:39;1.15;;;1.13;;
11596;SDS011;5854;48.072;16.286;2023-12-20T10:09:09;0.90;;;0.90;;
11596;SDS011;5854;48.072;16.286;2023-12-20T10:11:38;1.38;;;1.33;;
11596;SDS011;5854;48.072;16.286;2023-12-20T10:14:06;1.00;;;1.00;;
11596;SDS011;5854;48.072;16.286;2023-12-20T10:16:34;0.90;;;0.90;;
11596;SDS011;5854;48.072;16.286;2023-12-20T10:19:01;1.48;;;1.38;;
11596;SDS011;5854;48.072;16.286;2023-12-20T10:21:29;1.50;;;1.40;;
11596;SDS011;5854;48.072;16.286;2023-12-20T10:23:57;1.33;;;1.33;;
11596;SDS011;5854;48.072;16.286;2023-12-20T10:26:26;1.00;;;1.00;;
11596;SDS011;5854;48.072;16.286;2023-12-20T10:28:55;0.80;;;0.80;;
11596;SDS011;5854;48.072;16.286;2023-12-20T10:31:26;1.30;;;1.30;;
11596;SDS011;5854;48.072;16.286;2023-12-20T10:33:56;1.13;;;1.13;;
11596;SDS011;5854;48.072;16.286;2023-12-20T10:36:24;1.55;;;1.45;;
11596;SDS011;5854;48.072;16.286;2023-12-20T10:38:53;1.42;;;1.40;;
11596;SDS011;5854;48.072;16.286;2023-12-20T10:41:24;1.13;;;1.13;;
11596;SDS011;5854;48.072;16.286;2023-12-20T10:43:58;0.95;;;0.95;;
11596;SDS011;5854;48.072;16.286;2023-12-20T10:46:28;1.27;;;1.25;;
11596;SDS011;5854;48.072;16.286;2023-12-20T10:48:57;1.10;;;1.10;;
11596;SDS011;5854;48.072;16.286;2023-12-20T10:51:24;1.27;;;1.02;;
11596;SDS011;5854;48.072;16.286;2023-12-20T10:53:53;1.05;;;1.05;;
11596;SDS011;5854;48.072;16.286;2023-12-20T10:56:23;0.95;;;0.95;;
11596;SDS011;5854;48.072;16.286;2023-12-20T10:58:51;1.00;;;1.00;;
11596;SDS011;5854;48.072;16.286;2023-12-20T11:01:19;1.17;;;1.10;;
11596;SDS011;5854;48.072;16.286;2023-12-20T11:03:48;1.20;;;1.15;;
11596;SDS011;5854;48.072;16.286;2023-12-20T11:06:20;1.00;;;1.00;;
11596;SDS011;5854;48.072;16.286;2023-12-20T11:09:06;1.13;;;1.13;;
11596;SDS011;5854;48.072;16.286;2023-12-20T11:11:44;1.50;;;1.40;;
11596;SDS011;5854;48.072;16.286;2023-12-20T11:14:25;0.90;;;0.90;;
11596;SDS011;5854;48.072;16.286;2023-12-20T11:17:06;1.80;;;0.98;;
11596;SDS011;5854;48.072;16.286;2023-12-20T11:19:36;1.02;;;1.02;;
11596;SDS011;5854;48.072;16.286;2023-12-20T11:22:04;1.13;;;1.08;;
11596;SDS011;5854;48.072;16.286;2023-12-20T11:24:32;1.33;;;1.23;;
11596;SDS011;5854;48.072;16.286;2023-12-20T11:27:03;0.80;;;0.80;;
11596;SDS011;5854;48.072;16.286;2023-12-20T11:29:32;0.80;;;0.80;;
11596;SDS011;5854;48.072;16.286;2023-12-20T11:32:01;1.25;;;1.15;;
11596;SDS011;5854;48.072;16.286;2023-12-20T11:34:31;4.55;;;1.58;;
11596;SDS011;5854;48.072;16.286;2023-12-20T11:37:00;0.90;;;0.90;;
11596;SDS011;5854;48.072;16.286;2023-12-20T11:39:29;1.23;;;1.23;;
11596;SDS011;5854;48.072;16.286;2023-12-20T11:41:57;0.98;;;0.98;;
11596;SDS011;5854;48.072;16.286;2023-12-20T11:44:34;0.90;;;0.90;;
11596;SDS011;5854;48.072;16.286;2023-12-20T11:47:03;0.73;;;0.73;;
11596;SDS011;5854;48.072;16.286;2023-12-20T11:49:31;1.15;;;1.15;;
11596;SDS011;5854;48.072;16.286;2023-12-20T11:51:58;0.85;;;0.85;;
11596;SDS011;5854;48.072;16.286;2023-12-20T11:54:25;1.00;;;1.00;;
11596;SDS011;5854;48.072;16.286;2023-12-20T11:56:52;0.90;;;0.90;;
11596;SDS011;5854;48.072;16.286;2023-12-20T11:59:20;0.95;;;0.95;;
11596;SDS011;5854;48.072;16.286;2023-12-20T12:01:49;0.90;;;0.90;;
11596;SDS011;5854;48.072;16.286;2023-12-20T12:04:17;0.70;;;0.70;;
11596;SDS011;5854;48.072;16.286;2023-12-20T12:06:45;0.90;;;0.90;;
11596;SDS011;5854;48.072;16.286;2023-12-20T12:09:12;1.08;;;1.08;;
11596;SDS011;5854;48.072;16.286;2023-12-20T12:11:40;0.98;;;0.98;;
11596;SDS011;5854;48.072;16.286;2023-12-20T12:14:07;0.70;;;0.70;;
11596;SDS011;5854;48.072;16.286;2023-12-20T12:16:35;0.82;;;0.82;;
11596;SDS011;5854;48.072;16.286;2023-12-20T12:19:03;0.80;;;0.80;;
11596;SDS011;5854;48.072;16.286;2023-12-20T12:21:31;0.80;;;0.80;;
11596;SDS011;5854;48.072;16.286;2023-12-20T12:24:06;1.00;;;1.00;;
11596;SDS011;5854;48.072;16.286;2023-12-20T12:26:34;1.23;;;1.20;;
11596;SDS011;5854;48.072;16.286;2023-12-20T12:29:01;0.95;;;0.95;;
11596;SDS011;5854;48.072;16.286;2023-12-20T12:31:28;0.70;;;0.70;;
11596;SDS011;5854;48.072;16.286;2023-12-20T12:33:56;0.80;;;0.80;;
11596;SDS011;5854;48.072;16.286;2023-12-20T12:36:25;0.95;;;0.95;;
11596;SDS011;5854;48.072;16.286;2023-12-20T12:38:52;0.82;;;0.82;;
11596;SDS011;5854;48.072;16.286;2023-12-20T12:41:19;0.70;;;0.70;;
11596;SDS011;5854;48.072;16.286;2023-12-20T12:43:46;0.77;;;0.77;;
11596;SDS011;5854;48.072;16.286;2023-12-20T12:46:14;0.70;;;0.70;;
11596;SDS011;5854;48.072;16.286;2023-12-20T12:48:41;0.80;;;0.80;;
11596;SDS011;5854;48.072;16.286;2023-12-20T12:51:08;3.22;;;0.90;;
11596;SDS011;5854;48.072;16.286;2023-12-20T12:53:39;0.80;;;0.80;;
11596;SDS011;5854;48.072;16.286;2023-12-20T12:56:07;0.90;;;0.90;;
11596;SDS011;5854;48.072;16.286;2023-12-20T12:58:35;0.77;;;0.77;;
11596;SDS011;5854;48.072;16.286;2023-12-20T13:01:02;0.80;;;0.80;;
11596;SDS011;5854;48.072;16.286;2023-12-20T13:03:29;1.00;;;1.00;;
11596;SDS011;5854;48.072;16.286;2023-12-20T13:05:57;0.70;;;0.70;;
11596;SDS011;5854;48.072;16.286;2023-12-20T13:08:24;0.93;;;0.93;;
11596;SDS011;5854;48.072;16.286;2023-12-20T13:10:53;0.90;;;0.90;;
11596;SDS011;5854;48.072;16.286;2023-12-20T13:13:22;0.77;;;0.77;;
11596;SDS011;5854;48.072;16.286;2023-12-20T13:15:49;0.70;;;0.70;;
11596;SDS011;5854;48.072;16.286;2023-12-20T13:18:20;0.80;;;0.80;;
11596;SDS011;5854;48.072;16.286;2023-12-20T13:20:47;1.10;;;1.10;;
11596;SDS011;5854;48.072;16.286;2023-12-20T13:23:14;0.90;;;0.90;;
11596;SDS011;5854;48.072;16.286;2023-12-20T13:25:44;1.05;;;0.98;;
11596;SDS011;5854;48.072;16.286;2023-12-20T13:28:13;1.00;;;1.00;;
11596;SDS011;5854;48.072;16.286;2023-12-20T13:30:40;0.80;;;0.80;;
11596;SDS011;5854;48.072;16.286;2023-12-20T13:33:08;1.27;;;1.27;;
11596;SDS011;5854;48.072;16.286;2023-12-20T13:35:35;0.98;;;0.98;;
11596;SDS011;5854;48.072;16.286;2023-12-20T13:38:02;0.90;;;0.90;;
11596;SDS011;5854;48.072;16.286;2023-12-20T13:40:30;0.80;;;0.80;;
11596;SDS011;5854;48.072;16.286;2023-12-20T13:42:57;0.90;;;0.90;;
11596;SDS011;5854;48.072;16.286;2023-12-20T13:45:26;2.72;;;1.02;;
11596;SDS011;5854;48.072;16.286;2023-12-20T13:47:53;0.90;;;0.90;;
11596;SDS011;5854;48.072;16.286;2023-12-20T13:50:20;1.13;;;1.13;;
11596;SDS011;5854;48.072;16.286;2023-12-20T13:52:48;0.90;;;0.90;;
11596;SDS011;5854;48.072;16.286;2023-12-20T13:55:15;0.98;;;0.98;;
11596;SDS011;5854;48.072;16.286;2023-12-20T13:57:42;2.92;;;0.85;;
11596;SDS011;5854;48.072;16.286;2023-12-20T14:00:10;0.75;;;0.75;;
11596;SDS011;5854;48.072;16.286;2023-12-20T14:02:41;0.98;;;0.98;;
11596;SDS011;5854;48.072;16.286;2023-12-20T14:05:09;0.90;;;0.90;;
11596;SDS011;5854;48.072;16.286;2023-12-20T14:07:36;0.80;;;0.80;;
11596;SDS011;5854;48.072;16.286;2023-12-20T14:10:04;1.00;;;1.00;;
11596;SDS011;5854;48.072;16.286;2023-12-20T14:12:32;1.00;;;1.00;;
11596;SDS011;5854;48.072;16.286;2023-12-20T14:15:01;0.93;;;0.85;;
11596;SDS011;5854;48.072;16.286;2023-12-20T14:17:29;0.95;;;0.95;;
11596;SDS011;5854;48.072;16.286;2023-12-20T14:19:58;0.63;;;0.63;;
11596;SDS011;5854;48.072;16.286;2023-12-20T14:22:25;0.82;;;0.82;;
11596;SDS011;5854;48.072;16.286;2023-12-20T14:24:54;0.88;;;0.88;;
11596;SDS011;5854;48.072;16.286;2023-12-20T14:27:22;0.75;;;0.75;;
11596;SDS011;5854;48.072;16.286;2023-12-20T14:29:52;3.50;;;1.17;;
11596;SDS011;5854;48.072;16.286;2023-12-20T14:32:20;1.00;;;1.00;;
11596;SDS011;5854;48.072;16.286;2023-12-20T14:34:47;1.13;;;1.13;;
11596;SDS011;5854;48.072;16.286;2023-12-20T14:37:16;0.90;;;0.90;;
11596;SDS011;5854;48.072;16.286;2023-12-20T14:39:43;1.00;;;1.00;;
11596;SDS011;5854;48.072;16.286;2023-12-20T14:42:10;1.08;;;1.08;;
11596;SDS011;5854;48.072;16.286;2023-12-20T14:44:39;0.98;;;0.98;;
11596;SDS011;5854;48.072;16.286;2023-12-20T14:47:06;1.20;;;1.10;;